Time;durP1;ratioP1;P1;durP2;ratioP2;P2;SDS_P1;SDS_P2;PMS_P1;PMS_P2;Temp;Humidity;BMP_temperature;BMP_pressure;BME280_temperature;BME280_humidity;BME280_pressure;Samples;Min_cycle;Max_cycle;Signal;HPM_P1;HPM_P2
2021/04/05 00:00:51;;;;;;;13.50;6.23;;;2.60;92.00;;;;;;4322384;33;20429;-69
2021/04/05 00:03:17;;;;;;;13.03;6.30;;;2.60;92.00;;;;;;4322539;33;20161;-70
2021/04/05 00:05:44;;;;;;;13.17;6.23;;;2.60;92.20;;;;;;4322547;33;20153;-69
2021/04/05 00:08:11;;;;;;;12.63;6.43;;;2.60;92.40;;;;;;4322111;33;20531;-69
2021/04/05 00:10:48;;;;;;;13.40;6.30;;;2.60;92.30;;;;;;4322221;33;20168;-69
2021/04/05 00:13:21;;;;;;;13.23;6.37;;;2.70;92.30;;;;;;4320943;33;20189;-69
2021/04/05 00:15:48;;;;;;;11.70;5.97;;;2.70;92.50;;;;;;4322435;33;20149;-69
2021/04/05 00:18:16;;;;;;;13.00;6.50;;;2.60;92.50;;;;;;4320384;33;20176;-71
2021/04/05 00:20:49;;;;;;;13.00;7.00;;;2.60;92.60;;;;;;4304748;33;20224;-71
2021/04/05 00:23:16;;;;;;;12.30;6.30;;;2.60;92.70;;;;;;4320927;33;20161;-70
2021/04/05 00:25:42;;;;;;;11.03;6.17;;;2.60;92.90;;;;;;4320673;33;20169;-70
2021/04/05 00:28:10;;;;;;;12.73;6.73;;;2.60;93.00;;;;;;4320576;33;20437;-70
2021/04/05 00:30:37;;;;;;;12.73;6.27;;;2.60;92.90;;;;;;4321221;33;20165;-71
2021/04/05 00:33:05;;;;;;;15.37;6.97;;;2.60;92.90;;;;;;4320262;33;20162;-70
2021/04/05 00:35:35;;;;;;;14.63;6.73;;;2.60;93.10;;;;;;4320897;33;20209;-70
2021/04/05 00:38:04;;;;;;;11.73;6.40;;;2.60;93.20;;;;;;4313506;33;20176;-70
2021/04/05 00:40:42;;;;;;;14.73;6.77;;;2.60;93.30;;;;;;4321149;33;20223;-70
2021/04/05 00:43:11;;;;;;;12.83;6.47;;;2.50;93.30;;;;;;4321911;33;20172;-69
2021/04/05 00:45:37;;;;;;;14.40;6.80;;;2.60;93.40;;;;;;4321437;33;20363;-69
2021/04/05 00:48:06;;;;;;;13.90;7.20;;;2.60;93.30;;;;;;4320286;33;20196;-69
2021/04/05 00:50:42;;;;;;;14.57;7.10;;;2.60;93.50;;;;;;4319924;33;20200;-69
2021/04/05 00:53:10;;;;;;;14.10;6.70;;;2.60;93.30;;;;;;4321899;33;20169;-69
2021/04/05 00:55:39;;;;;;;14.13;6.93;;;2.60;93.40;;;;;;4321664;33;20157;-69
2021/04/05 00:58:06;;;;;;;13.80;7.30;;;2.60;93.40;;;;;;4320348;33;20168;-70
2021/04/05 01:00:42;;;;;;;13.47;7.10;;;2.60;93.40;;;;;;4320636;33;20375;-70
2021/04/05 01:03:14;;;;;;;13.23;6.93;;;2.60;93.40;;;;;;4321292;33;20482;-70
2021/04/05 01:05:41;;;;;;;12.70;6.90;;;2.60;93.50;;;;;;4320595;33;20232;-70
2021/04/05 01:08:11;;;;;;;11.60;6.57;;;2.60;93.60;;;;;;4321478;33;20436;-70
2021/04/05 01:10:38;;;;;;;12.63;6.80;;;2.60;93.70;;;;;;4321374;33;20165;-70
2021/04/05 01:13:06;;;;;;;13.07;7.03;;;2.60;93.50;;;;;;4320123;33;20169;-70
2021/04/05 01:15:33;;;;;;;13.80;7.20;;;2.60;93.60;;;;;;4320595;33;20217;-70
2021/04/05 01:17:59;;;;;;;13.43;6.80;;;2.60;93.80;;;;;;4319949;33;20165;-70
2021/04/05 01:20:28;;;;;;;12.73;6.37;;;2.60;93.30;;;;;;4320261;33;20153;-70
2021/04/05 01:22:54;;;;;;;13.17;6.53;;;2.60;93.40;;;;;;4320099;33;20201;-70
2021/04/05 01:25:22;;;;;;;12.67;6.60;;;2.60;93.30;;;;;;4320076;33;20207;-70
2021/04/05 01:27:51;;;;;;;16.27;7.33;;;2.60;93.30;;;;;;4321495;33;20187;-70
2021/04/05 01:30:32;;;;;;;14.60;7.10;;;2.60;93.30;;;;;;4320126;33;20362;-69
2021/04/05 01:33:13;;;;;;;13.23;6.60;;;2.60;93.30;;;;;;4320861;33;20450;-70
2021/04/05 01:35:48;;;;;;;14.87;7.00;;;2.60;93.30;;;;;;4320954;33;20174;-70
2021/04/05 01:38:18;;;;;;;12.27;6.53;;;2.50;93.40;;;;;;4319609;33;20204;-70
2021/04/05 01:40:49;;;;;;;14.93;6.97;;;2.50;93.60;;;;;;4319890;33;20195;-70
2021/04/05 01:43:15;;;;;;;13.83;6.50;;;2.50;93.50;;;;;;4319333;33;20173;-71
2021/04/05 01:45:43;;;;;;;13.20;6.90;;;2.50;93.50;;;;;;4319507;33;20188;-70
2021/04/05 01:48:13;;;;;;;13.27;6.73;;;2.50;93.50;;;;;;4319475;33;20153;-70
2021/04/05 01:50:41;;;;;;;16.53;7.70;;;2.50;93.60;;;;;;4318698;33;20417;-70
2021/04/05 01:53:08;;;;;;;17.53;7.50;;;2.50;93.60;;;;;;4322139;33;20153;-70
2021/04/05 01:55:36;;;;;;;14.23;7.27;;;2.50;93.60;;;;;;4324046;33;20517;-70
2021/04/05 01:58:05;;;;;;;13.87;6.97;;;2.40;93.60;;;;;;4323443;33;20230;-70
2021/04/05 02:00:36;;;;;;;13.43;7.43;;;2.40;93.80;;;;;;4322662;33;20153;-70
2021/04/05 02:03:07;;;;;;;15.23;7.53;;;2.40;93.80;;;;;;4323750;33;20177;-70
2021/04/05 02:05:37;;;;;;;15.80;7.40;;;2.40;93.80;;;;;;4324202;33;20203;-70
2021/04/05 02:08:06;;;;;;;15.57;7.23;;;2.40;93.70;;;;;;4324288;33;20193;-70
2021/04/05 02:10:33;;;;;;;14.30;7.43;;;2.40;93.80;;;;;;4323366;33;20209;-70
2021/04/05 02:13:00;;;;;;;16.93;7.77;;;2.30;93.90;;;;;;4324092;33;20145;-70
2021/04/05 02:15:27;;;;;;;17.33;7.40;;;2.30;94.10;;;;;;4322652;33;20158;-70
2021/04/05 02:17:53;;;;;;;15.07;7.30;;;2.30;94.20;;;;;;4323807;33;20172;-70
2021/04/05 02:20:20;;;;;;;13.07;7.27;;;2.30;94.20;;;;;;4324064;33;20158;-70
2021/04/05 02:22:49;;;;;;;15.80;7.67;;;2.20;94.30;;;;;;4322458;33;20204;-70
2021/04/05 02:25:20;;;;;;;14.53;7.47;;;2.20;94.30;;;;;;4323897;33;20421;-70
2021/04/05 02:27:49;;;;;;;16.17;8.40;;;2.20;94.30;;;;;;4323809;33;20399;-70
2021/04/05 02:30:22;;;;;;;15.77;8.20;;;2.20;94.50;;;;;;4323850;33;20149;-70
2021/04/05 02:32:52;;;;;;;16.77;7.60;;;2.20;94.60;;;;;;4322375;33;20171;-70
2021/04/05 02:35:22;;;;;;;15.43;7.90;;;2.20;94.60;;;;;;4323788;33;20153;-70
2021/04/05 02:37:50;;;;;;;17.07;8.37;;;2.20;94.60;;;;;;4323773;33;20157;-70
2021/04/05 02:40:16;;;;;;;13.80;7.60;;;2.10;94.80;;;;;;4322347;33;20213;-70
2021/04/05 02:42:44;;;;;;;17.63;8.40;;;2.10;94.90;;;;;;4323639;33;20192;-70
2021/04/05 02:45:15;;;;;;;16.27;8.07;;;2.00;95.10;;;;;;4323680;33;20189;-70
2021/04/05 02:47:42;;;;;;;18.00;8.27;;;2.00;95.00;;;;;;4323372;33;20232;-70
2021/04/05 02:50:09;;;;;;;15.33;8.90;;;2.00;95.20;;;;;;4323815;33;20212;-70
2021/04/05 02:52:38;;;;;;;18.23;8.87;;;2.00;95.20;;;;;;4323544;33;20154;-70
2021/04/05 02:55:06;;;;;;;19.03;9.00;;;2.00;95.30;;;;;;4322984;33;20219;-70
2021/04/05 02:57:37;;;;;;;18.03;8.67;;;2.00;95.40;;;;;;4322110;33;20472;-70
2021/04/05 03:00:15;;;;;;;18.50;8.80;;;2.00;95.50;;;;;;4322062;33;20175;-70
2021/04/05 03:02:43;;;;;;;21.70;9.57;;;1.90;95.60;;;;;;4322325;33;20215;-69
2021/04/05 03:05:11;;;;;;;16.27;8.13;;;1.90;95.60;;;;;;4323422;33;20215;-70
2021/04/05 03:07:38;;;;;;;17.80;8.67;;;2.00;95.70;;;;;;4323391;33;20197;-70
2021/04/05 03:10:10;;;;;;;17.77;9.33;;;1.90;95.70;;;;;;4322188;33;20192;-70
2021/04/05 03:12:39;;;;;;;17.07;9.00;;;1.90;95.90;;;;;;4323241;33;20436;-69
2021/04/05 03:15:08;;;;;;;18.17;8.87;;;1.90;96.10;;;;;;4323208;33;20177;-70
2021/04/05 03:17:36;;;;;;;18.17;8.73;;;1.90;96.30;;;;;;4322283;33;20395;-70
2021/04/05 03:20:14;;;;;;;18.87;9.67;;;1.90;96.10;;;;;;4323185;33;20404;-71
2021/04/05 03:22:43;;;;;;;19.10;9.50;;;1.80;96.30;;;;;;4321186;33;20187;-71
2021/04/05 03:25:18;;;;;;;20.67;8.93;;;1.80;96.40;;;;;;4323096;33;20455;-70
2021/04/05 03:27:46;;;;;;;18.17;9.30;;;1.80;96.70;;;;;;4321717;33;20171;-71
2021/04/05 03:30:18;;;;;;;19.17;8.83;;;1.80;96.70;;;;;;4323026;33;20200;-70
2021/04/05 03:32:47;;;;;;;16.97;8.77;;;1.70;96.80;;;;;;4321641;33;20154;-70
2021/04/05 03:35:19;;;;;;;18.33;9.40;;;1.70;96.90;;;;;;4321542;33;20165;-70
2021/04/05 03:37:47;;;;;;;19.57;9.83;;;1.70;97.10;;;;;;4323008;33;20166;-70
2021/04/05 03:40:15;;;;;;;20.73;9.80;;;1.70;97.20;;;;;;4321485;33;20141;-71
2021/04/05 03:42:51;;;;;;;18.47;9.97;;;1.70;97.50;;;;;;4321485;33;20207;-70
2021/04/05 03:45:24;;;;;;;19.67;9.60;;;1.70;97.60;;;;;;4321017;33;20149;-70
2021/04/05 03:48:13;;;;;;;18.03;9.37;;;1.60;97.70;;;;;;4322852;33;20399;-70
2021/04/05 03:50:49;;;;;;;21.53;9.97;;;1.60;97.80;;;;;;4323073;33;20204;-69
2021/04/05 03:53:36;;;;;;;20.67;10.30;;;1.60;98.00;;;;;;4321610;33;20152;-70
2021/04/05 03:56:17;;;;;;;21.00;9.83;;;1.60;98.20;;;;;;4322745;33;20149;-70
2021/04/05 03:58:47;;;;;;;20.47;10.50;;;1.60;98.30;;;;;;4321302;33;20164;-70
2021/04/05 04:01:23;;;;;;;20.27;9.87;;;1.50;98.50;;;;;;4322540;33;20207;-70
2021/04/05 04:04:11;;;;;;;17.90;9.97;;;1.50;98.70;;;;;;4323062;33;20216;-70
2021/04/05 04:06:51;;;;;;;19.33;10.33;;;1.60;98.80;;;;;;4322587;33;20412;-70
2021/04/05 04:09:20;;;;;;;20.60;10.13;;;1.50;98.80;;;;;;4321559;33;20539;-70
2021/04/05 04:11:50;;;;;;;22.17;11.03;;;1.50;99.10;;;;;;4321080;33;20430;-70
2021/04/05 04:14:18;;;;;;;20.47;10.63;;;1.50;99.00;;;;;;4321642;33;20172;-70
2021/04/05 04:16:47;;;;;;;24.17;11.20;;;1.50;99.20;;;;;;4320640;33;20262;-70
2021/04/05 04:19:16;;;;;;;27.97;11.20;;;1.50;99.30;;;;;;4321778;33;20154;-70
2021/04/05 04:21:45;;;;;;;21.87;10.53;;;1.60;99.20;;;;;;4320915;33;20229;-70
2021/04/05 04:24:12;;;;;;;22.30;10.90;;;1.50;99.40;;;;;;4322214;33;20468;-70
2021/04/05 04:26:40;;;;;;;22.30;10.70;;;1.50;99.40;;;;;;4322293;33;20149;-70
2021/04/05 04:29:13;;;;;;;21.37;10.67;;;1.50;99.40;;;;;;4321109;33;20156;-70
2021/04/05 04:31:42;;;;;;;22.33;10.97;;;1.60;99.60;;;;;;4322237;33;20542;-70
2021/04/05 04:34:08;;;;;;;21.03;10.17;;;1.50;99.60;;;;;;4322097;33;20401;-70
2021/04/05 04:36:35;;;;;;;22.57;10.83;;;1.60;99.60;;;;;;4320689;33;20188;-71
2021/04/05 04:39:01;;;;;;;22.27;10.87;;;1.60;99.50;;;;;;4320721;33;20207;-71
2021/04/05 04:41:30;;;;;;;23.70;11.10;;;1.60;99.50;;;;;;4321277;33;20153;-70
2021/04/05 04:43:59;;;;;;;24.53;11.10;;;1.60;99.40;;;;;;4321930;33;20217;-70
2021/04/05 04:46:26;;;;;;;23.97;10.60;;;1.60;99.50;;;;;;4322429;33;20157;-70
2021/04/05 04:48:59;;;;;;;23.97;11.10;;;1.60;99.50;;;;;;4320556;33;20149;-70
2021/04/05 04:51:26;;;;;;;22.83;11.17;;;1.70;99.90;;;;;;4322677;33;20172;-70
2021/04/05 04:54:00;;;;;;;25.50;11.47;;;1.70;99.50;;;;;;4320458;33;20502;-70
2021/04/05 04:56:28;;;;;;;24.40;10.97;;;1.70;99.20;;;;;;4321798;33;20375;-70
2021/04/05 04:59:11;;;;;;;25.80;11.63;;;1.80;99.20;;;;;;4320340;33;20200;-70
2021/04/05 05:01:41;;;;;;;24.00;11.27;;;1.90;98.90;;;;;;4321439;33;20169;-70
2021/04/05 05:04:15;;;;;;;25.80;11.67;;;1.90;98.70;;;;;;4320166;33;20225;-71
2021/04/05 05:06:42;;;;;;;20.60;11.27;;;1.90;98.60;;;;;;4321781;33;20176;-69
2021/04/05 05:09:09;;;;;;;24.07;10.97;;;1.90;98.40;;;;;;4321183;33;20149;-70
2021/04/05 05:11:36;;;;;;;27.57;12.17;;;2.00;98.10;;;;;;4321938;33;20250;-70
2021/04/05 05:14:03;;;;;;;26.67;10.87;;;2.10;97.90;;;;;;4320165;33;20158;-70
2021/04/05 05:16:31;;;;;;;21.20;11.23;;;2.10;97.90;;;;;;4321394;33;20397;-70
2021/04/05 05:18:59;;;;;;;25.50;11.47;;;2.20;97.50;;;;;;4321690;33;20196;-70
2021/04/05 05:21:32;;;;;;;25.90;11.73;;;2.30;97.40;;;;;;4321463;33;20188;-70
2021/04/05 05:24:02;;;;;;;23.63;11.43;;;2.30;96.90;;;;;;4320932;33;20173;-70
2021/04/05 05:26:32;;;;;;;23.97;11.30;;;2.40;96.70;;;;;;4321481;33;20142;-70
2021/04/05 05:29:07;;;;;;;25.03;11.43;;;2.40;96.40;;;;;;4321425;33;20157;-70
2021/04/05 05:31:38;;;;;;;22.80;11.00;;;2.40;96.00;;;;;;4321444;33;20153;-70
2021/04/05 05:34:10;;;;;;;23.87;11.40;;;2.50;95.60;;;;;;4321474;33;20177;-70
2021/04/05 05:36:37;;;;;;;20.63;10.57;;;2.60;95.40;;;;;;4319932;33;20354;-70
2021/04/05 05:39:05;;;;;;;22.20;10.93;;;2.60;95.30;;;;;;4321358;33;20180;-70
2021/04/05 05:41:54;;;;;;;23.80;11.33;;;2.60;95.10;;;;;;4320148;33;20207;-70
2021/04/05 05:44:42;;;;;;;23.23;11.80;;;2.70;94.80;;;;;;4319864;33;20196;-70
2021/04/05 05:47:27;;;;;;;26.00;11.53;;;2.80;94.40;;;;;;4319678;33;20464;-70
2021/04/05 05:50:13;;;;;;;23.83;11.63;;;2.80;94.30;;;;;;4319879;33;20157;-69
2021/04/05 05:53:28;;;;;;;19.27;10.67;;;2.90;93.90;;;;;;4319495;33;20464;-68
2021/04/05 05:56:26;;;;;;;23.57;10.50;;;3.00;93.30;;;;;;4260688;33;20373;-70
2021/04/05 05:59:11;;;;;;;20.87;10.60;;;3.10;93.60;;;;;;4245572;33;20254;-70
2021/04/05 06:01:37;;;;;;;21.17;10.77;;;3.20;92.70;;;;;;4240529;33;20174;-70
2021/04/05 06:04:22;;;;;;;20.20;11.20;;;3.30;92.40;;;;;;4245958;33;20181;-70
2021/04/05 06:07:26;;;;;;;20.63;10.53;;;3.40;92.20;;;;;;4246070;33;20374;-70
2021/04/05 06:10:11;;;;;;;24.27;10.90;;;3.60;91.80;;;;;;4247403;33;20166;-70
2021/04/05 06:13:07;;;;;;;21.53;11.03;;;3.60;91.30;;;;;;4247032;33;20344;-70
2021/04/05 06:16:06;;;;;;;21.07;10.93;;;3.70;91.20;;;;;;4247465;33;20155;-70
2021/04/05 06:19:00;;;;;;;21.47;10.50;;;3.80;91.00;;;;;;4245203;33;20426;-70
2021/04/05 06:21:41;;;;;;;21.77;10.07;;;3.90;90.60;;;;;;4247122;33;20422;-70
2021/04/05 06:24:27;;;;;;;19.40;10.53;;;4.00;90.40;;;;;;4245907;33;20247;-70
2021/04/05 06:27:32;;;;;;;25.17;10.17;;;4.10;90.10;;;;;;4246349;33;20493;-70
2021/04/05 06:30:08;;;;;;;20.60;10.57;;;4.20;89.90;;;;;;4219654;34;20225;-70
2021/04/05 06:33:07;;;;;;;20.27;10.43;;;4.30;89.30;;;;;;4250212;33;20441;-70
2021/04/05 06:35:37;;;;;;;23.40;10.63;;;4.40;89.10;;;;;;4276019;33;20164;-70
2021/04/05 06:38:42;;;;;;;18.57;10.07;;;4.50;88.90;;;;;;4274611;33;20152;-70
2021/04/05 06:41:33;;;;;;;19.43;10.73;;;4.70;88.10;;;;;;4278474;33;20204;-70
2021/04/05 06:44:26;;;;;;;20.93;9.93;;;4.80;87.40;;;;;;4278027;33;20183;-70
2021/04/05 06:47:19;;;;;;;21.53;10.13;;;5.00;86.60;;;;;;4276588;33;20370;-72
2021/04/05 06:50:07;;;;;;;20.93;9.80;;;5.10;85.80;;;;;;4276412;33;20565;-71
2021/04/05 06:52:48;;;;;;;19.57;9.73;;;5.20;85.30;;;;;;4276470;33;20210;-69
2021/04/05 06:55:28;;;;;;;17.57;9.43;;;5.30;84.60;;;;;;4277594;33;20174;-70
2021/04/05 06:58:26;;;;;;;20.50;9.37;;;5.40;84.20;;;;;;4276788;33;20274;-70
2021/04/05 07:01:33;;;;;;;18.17;9.37;;;5.50;83.70;;;;;;4276424;33;20504;-70
2021/04/05 07:04:27;;;;;;;18.40;9.67;;;5.60;83.10;;;;;;4304898;33;20188;-71
2021/04/05 07:07:24;;;;;;;17.70;9.40;;;5.80;83.30;;;;;;4320305;33;20162;-71
2021/04/05 07:10:08;;;;;;;18.10;8.60;;;5.90;82.50;;;;;;4335403;33;20553;-71
2021/04/05 07:13:02;;;;;;;17.93;8.90;;;6.00;82.00;;;;;;4334099;33;20193;-70
2021/04/05 07:15:59;;;;;;;21.70;8.53;;;6.10;82.10;;;;;;4334090;33;20430;-71
2021/04/05 07:18:44;;;;;;;19.93;8.90;;;6.20;81.90;;;;;;4334062;33;20238;-72
2021/04/05 07:21:35;;;;;;;17.73;8.90;;;6.30;81.30;;;;;;4335109;33;20161;-71
2021/04/05 07:24:33;;;;;;;18.87;8.83;;;6.50;81.20;;;;;;4334497;33;20309;-71
2021/04/05 07:27:14;;;;;;;18.30;8.70;;;6.60;80.70;;;;;;4335247;33;20230;-71
2021/04/05 07:30:17;;;;;;;19.17;9.20;;;6.90;80.30;;;;;;4333971;33;20189;-69
2021/04/05 07:33:02;;;;;;;19.60;8.50;;;7.00;79.60;;;;;;4335511;33;20148;-72
2021/04/05 07:35:56;;;;;;;17.43;8.63;;;7.10;78.80;;;;;;4334831;33;20170;-71
2021/04/05 07:38:34;;;;;;;16.27;8.07;;;7.30;78.20;;;;;;4321005;33;20208;-71
2021/04/05 07:41:06;;;;;;;20.20;8.73;;;7.40;77.10;;;;;;4300068;33;20165;-71
2021/04/05 07:43:49;;;;;;;14.70;7.40;;;7.40;76.40;;;;;;4291163;33;20415;-72
2021/04/05 07:46:31;;;;;;;16.07;7.50;;;7.50;75.60;;;;;;4290160;33;20162;-71
2021/04/05 07:49:00;;;;;;;13.43;7.40;;;7.50;72.20;;;;;;4290861;33;20255;-70
2021/04/05 07:51:48;;;;;;;14.53;7.37;;;7.70;71.00;;;;;;4291126;33;20176;-71
2021/04/05 07:54:17;;;;;;;11.07;6.37;;;7.70;69.40;;;;;;4291529;33;20155;-68
2021/04/05 07:57:11;;;;;;;12.13;6.73;;;7.90;69.10;;;;;;4291920;33;20225;-68
2021/04/05 07:59:49;;;;;;;14.27;6.80;;;7.90;67.50;;;;;;4291498;33;20208;-68
2021/04/05 08:02:36;;;;;;;15.63;6.70;;;7.90;67.60;;;;;;4290916;33;20173;-68
2021/04/05 08:05:52;;;;;;;13.17;6.40;;;8.10;66.50;;;;;;4289980;33;20218;-68
2021/04/05 08:08:40;;;;;;;13.17;6.03;;;8.40;65.20;;;;;;4304422;33;20187;-68
2021/04/05 08:11:44;;;;;;;13.60;6.27;;;8.60;64.30;;;;;;4304746;33;20181;-68
2021/04/05 08:14:39;;;;;;;10.73;6.17;;;8.70;65.00;;;;;;4305724;33;20202;-68
2021/04/05 08:17:22;;;;;;;11.93;6.47;;;8.90;64.50;;;;;;4319074;33;20187;-68
2021/04/05 08:20:09;;;;;;;13.07;6.17;;;8.90;63.00;;;;;;4320469;33;20161;-68
2021/04/05 08:22:38;;;;;;;12.53;6.07;;;9.00;62.30;;;;;;4319538;33;20181;-68
2021/04/05 08:25:54;;;;;;;12.47;5.93;;;9.20;62.10;;;;;;4319782;33;20185;-68
2021/04/05 08:28:40;;;;;;;12.67;5.93;;;9.20;61.60;;;;;;4320695;33;20185;-68
2021/04/05 08:31:21;;;;;;;11.47;5.53;;;9.30;61.60;;;;;;4317349;33;20212;-68
2021/04/05 08:34:24;;;;;;;12.03;5.77;;;9.30;61.30;;;;;;4318362;33;20169;-69
2021/04/05 08:37:13;;;;;;;10.27;5.73;;;9.50;61.40;;;;;;4318949;33;20169;-68
2021/04/05 08:40:13;;;;;;;13.23;5.73;;;9.50;61.10;;;;;;4318561;33;20169;-69
2021/04/05 08:42:59;;;;;;;9.70;5.43;;;9.90;59.20;;;;;;4318034;33;20203;-71
2021/04/05 08:45:58;;;;;;;11.33;5.40;;;10.20;58.90;;;;;;4321079;33;20165;-70
2021/04/05 08:48:27;;;;;;;12.60;5.80;;;10.60;57.70;;;;;;4310098;33;20535;-70
2021/04/05 08:51:00;;;;;;;10.20;5.53;;;10.50;57.80;;;;;;4321435;33;20200;-70
2021/04/05 08:53:30;;;;;;;9.63;5.57;;;10.60;58.00;;;;;;4320885;33;20419;-69
2021/04/05 08:55:58;;;;;;;9.93;5.63;;;11.00;56.90;;;;;;4308101;33;20173;-71
2021/04/05 08:58:41;;;;;;;9.87;5.30;;;10.90;56.50;;;;;;4316265;33;20223;-70
2021/04/05 09:01:12;;;;;;;20.97;10.87;;;11.50;56.40;;;;;;4317956;33;20576;-71
2021/04/05 09:03:42;;;;;;;11.17;5.63;;;11.80;55.00;;;;;;4320739;33;20187;-69
2021/04/05 09:06:20;;;;;;;11.13;5.27;;;11.70;54.90;;;;;;4319904;33;20169;-69
2021/04/05 09:08:49;;;;;;;9.30;5.60;;;11.50;54.70;;;;;;4754745;27;20240;-70
2021/04/05 09:11:16;;;;;;;10.10;5.77;;;11.70;54.70;;;;;;4314902;33;20188;-69
2021/04/05 09:13:49;;;;;;;9.87;5.43;;;11.50;54.90;;;;;;4321357;33;20213;-68
2021/04/05 09:16:56;;;;;;;12.00;5.63;;;11.10;55.50;;;;;;4319883;33;20549;-67
2021/04/05 09:20:00;;;;;;;8.50;5.33;;;10.90;56.40;;;;;;4321091;33;20180;-69
2021/04/05 09:22:53;;;;;;;10.70;5.17;;;10.80;56.90;;;;;;4319758;33;20161;-69
2021/04/05 09:25:35;;;;;;;9.83;5.17;;;10.90;56.80;;;;;;4319846;33;20247;-69
2021/04/05 09:28:23;;;;;;;8.10;4.93;;;10.80;56.90;;;;;;4319600;33;20208;-68
2021/04/05 09:30:52;;;;;;;9.53;4.70;;;10.60;57.00;;;;;;4321433;33;20251;-69
2021/04/05 09:33:44;;;;;;;12.00;5.30;;;10.60;57.10;;;;;;4320202;33;20149;-69
2021/04/05 09:36:25;;;;;;;8.67;4.57;;;10.60;57.30;;;;;;4319475;33;20157;-68
2021/04/05 09:39:10;;;;;;;9.00;5.00;;;10.80;57.40;;;;;;4319932;33;20215;-69
2021/04/05 09:41:58;;;;;;;10.80;4.90;;;10.60;57.60;;;;;;4320913;33;20172;-68
2021/04/05 09:44:40;;;;;;;10.23;5.30;;;10.60;57.00;;;;;;4319846;33;20229;-68
2021/04/05 09:47:34;;;;;;;11.40;5.10;;;10.40;57.10;;;;;;4319670;33;20388;-68
2021/04/05 09:50:04;;;;;;;8.37;4.73;;;10.50;57.60;;;;;;4310335;33;20483;-68
2021/04/05 09:53:08;;;;;;;12.23;5.10;;;10.70;57.40;;;;;;4320725;33;20153;-68
2021/04/05 09:55:40;;;;;;;9.70;4.77;;;10.90;56.40;;;;;;4317837;33;20207;-69
2021/04/05 09:58:26;;;;;;;9.37;4.70;;;11.10;56.60;;;;;;4320443;33;20199;-69
2021/04/05 10:01:04;;;;;;;10.60;4.67;;;11.20;55.80;;;;;;4320213;33;20473;-69
2021/04/05 10:03:39;;;;;;;10.63;4.90;;;11.20;56.40;;;;;;4318618;33;20187;-69
2021/04/05 10:06:07;;;;;;;8.13;4.90;;;11.30;55.60;;;;;;4319314;33;20153;-69
2021/04/05 10:08:37;;;;;;;11.07;4.93;;;11.30;55.40;;;;;;4318025;33;20192;-69
2021/04/05 10:11:06;;;;;;;9.77;4.70;;;11.40;55.60;;;;;;4319245;33;20432;-70
2021/04/05 10:13:35;;;;;;;8.57;4.40;;;11.40;56.00;;;;;;4319745;33;20477;-69
2021/04/05 10:16:15;;;;;;;11.20;5.20;;;11.60;55.60;;;;;;4322876;33;20157;-70
2021/04/05 10:18:53;;;;;;;7.90;4.33;;;11.40;56.00;;;;;;4321835;33;20529;-70
2021/04/05 10:21:21;;;;;;;9.27;4.67;;;11.40;55.80;;;;;;4322543;33;20215;-70
2021/04/05 10:23:49;;;;;;;11.03;5.00;;;11.40;55.90;;;;;;4322201;33;20235;-71
2021/04/05 10:26:17;;;;;;;7.30;4.57;;;11.40;55.80;;;;;;4321295;33;20161;-70
2021/04/05 10:28:45;;;;;;;9.70;4.40;;;11.50;55.80;;;;;;4321322;33;20407;-70
2021/04/05 10:31:21;;;;;;;10.40;4.50;;;11.60;55.80;;;;;;4321459;33;20252;-70
2021/04/05 10:33:50;;;;;;;8.47;4.47;;;11.90;55.60;;;;;;4321907;33;20181;-70
2021/04/05 10:36:22;;;;;;;9.67;4.47;;;12.20;55.20;;;;;;4321328;33;20172;-69
2021/04/05 10:38:50;;;;;;;9.30;4.37;;;12.10;54.50;;;;;;4322586;33;20227;-69
2021/04/05 10:41:20;;;;;;;8.83;4.80;;;12.00;54.80;;;;;;4321860;33;20169;-69
2021/04/05 10:43:58;;;;;;;9.00;4.30;;;11.80;55.10;;;;;;4322372;33;20479;-68
2021/04/05 10:55:39;;;;;;;8.83;4.70;;;11.70;55.50;;;;;;4485530;27;20472;-72
2021/04/05 10:58:10;;;;;;;9.73;4.47;;;11.60;55.80;;;;;;4317837;33;20165;-72
2021/04/05 11:00:41;;;;;;;13.60;6.77;;;11.70;56.20;;;;;;4319527;33;20462;-72
2021/04/05 11:03:26;;;;;;;11.27;4.63;;;11.90;55.60;;;;;;4320396;33;20206;-72
2021/04/05 11:06:00;;;;;;;9.63;4.50;;;11.80;55.80;;;;;;4319095;33;20225;-72
2021/04/05 11:08:33;;;;;;;9.87;4.30;;;11.90;56.20;;;;;;4320796;33;20166;-72
2021/04/05 11:11:13;;;;;;;13.00;5.00;;;12.00;55.40;;;;;;4321377;33;20184;-72
2021/04/05 11:13:44;;;;;;;7.97;3.73;;;12.00;55.40;;;;;;4320483;33;20696;-71
2021/04/05 11:16:14;;;;;;;7.53;4.23;;;12.20;54.80;;;;;;4321336;33;20215;-71
2021/04/05 11:18:52;;;;;;;9.37;4.17;;;12.10;55.60;;;;;;4319831;33;20193;-71
2021/04/05 11:21:32;;;;;;;8.83;4.60;;;12.30;54.80;;;;;;4322006;33;20266;-72
2021/04/05 11:23:59;;;;;;;10.23;4.83;;;12.40;54.40;;;;;;4322870;33;20424;-73
2021/04/05 11:26:30;;;;;;;9.00;4.20;;;12.50;54.40;;;;;;4322070;33;20395;-72
2021/04/05 11:28:59;;;;;;;9.97;4.20;;;12.50;54.10;;;;;;4321619;33;20153;-70
2021/04/05 11:31:44;;;;;;;10.23;4.60;;;12.50;53.90;;;;;;4322746;33;20153;-70
2021/04/05 11:34:15;;;;;;;8.93;3.97;;;12.40;54.20;;;;;;4319590;33;20180;-70
2021/04/05 11:36:48;;;;;;;10.63;4.37;;;12.30;54.60;;;;;;4319733;33;20221;-73
2021/04/05 11:39:20;;;;;;;9.97;4.03;;;12.30;54.40;;;;;;4310490;33;20180;-71
2021/04/05 11:41:52;;;;;;;9.80;4.10;;;12.30;54.90;;;;;;4321448;33;20161;-73
2021/04/05 11:44:29;;;;;;;12.67;4.93;;;12.50;54.60;;;;;;4321323;33;20199;-73
2021/04/05 11:46:58;;;;;;;9.40;4.13;;;12.30;54.10;;;;;;4321321;33;20219;-73
2021/04/05 11:49:32;;;;;;;8.23;3.83;;;12.30;54.40;;;;;;4318670;33;20213;-71
2021/04/05 11:52:07;;;;;;;7.90;3.70;;;12.20;54.40;;;;;;4318516;33;20183;-70
2021/04/05 11:54:54;;;;;;;8.93;3.90;;;12.20;54.20;;;;;;4319967;33;20455;-70
2021/04/05 11:57:48;;;;;;;7.70;3.80;;;12.20;54.40;;;;;;4320794;33;20196;-70
2021/04/05 12:00:18;;;;;;;7.97;4.00;;;12.00;54.60;;;;;;4320287;33;20161;-70
2021/04/05 12:02:54;;;;;;;11.83;3.77;;;12.00;55.00;;;;;;4320859;33;20219;-70
2021/04/05 12:05:30;;;;;;;8.73;3.90;;;12.00;54.40;;;;;;4320987;33;20188;-71
2021/04/05 12:08:10;;;;;;;7.17;3.80;;;12.00;54.30;;;;;;4322335;33;20479;-71
2021/04/05 12:10:40;;;;;;;9.67;4.30;;;12.00;54.40;;;;;;4321934;33;20149;-71
2021/04/05 12:13:12;;;;;;;8.67;4.10;;;12.00;54.20;;;;;;4322178;33;20145;-71
2021/04/05 12:15:41;;;;;;;9.47;4.03;;;12.00;54.30;;;;;;4321830;33;20400;-71
2021/04/05 12:18:08;;;;;;;9.53;4.40;;;12.00;55.20;;;;;;4321562;33;20359;-71
2021/04/05 12:20:36;;;;;;;8.77;3.70;;;12.10;54.50;;;;;;4317772;33;20223;-70
2021/04/05 12:23:15;;;;;;;10.70;4.00;;;12.10;54.70;;;;;;4319570;33;20232;-70
2021/04/05 12:25:44;;;;;;;16.40;8.47;;;12.20;54.50;;;;;;4320315;33;20276;-72
2021/04/05 12:28:12;;;;;;;7.97;4.00;;;12.20;54.20;;;;;;4314873;33;20243;-71
2021/04/05 12:30:40;;;;;;;7.03;3.93;;;12.30;54.50;;;;;;4320232;33;20187;-70
2021/04/05 12:33:10;;;;;;;10.23;3.80;;;12.40;54.90;;;;;;4320500;33;20580;-69
2021/04/05 12:35:57;;;;;;;8.00;4.37;;;12.40;53.90;;;;;;4319601;33;20169;-71
2021/04/05 12:38:36;;;;;;;9.80;4.03;;;12.50;54.00;;;;;;4319564;33;20189;-70
2021/04/05 12:41:05;;;;;;;8.90;4.30;;;12.50;53.60;;;;;;4317245;33;20570;-71
2021/04/05 12:43:35;;;;;;;11.07;4.00;;;12.40;53.80;;;;;;4318019;33;20185;-71
2021/04/05 12:46:13;;;;;;;9.50;4.23;;;12.40;53.90;;;;;;4318731;33;20169;-72
2021/04/05 12:48:43;;;;;;;7.33;3.80;;;12.40;54.10;;;;;;4319950;33;20164;-71
2021/04/05 12:51:10;;;;;;;8.57;3.90;;;12.50;53.80;;;;;;4319948;33;20221;-71
2021/04/05 12:53:39;;;;;;;8.40;3.70;;;12.60;53.40;;;;;;4318561;33;20185;-71
2021/04/05 12:56:15;;;;;;;10.50;3.70;;;12.70;53.50;;;;;;4320422;33;20217;-71
2021/04/05 12:58:42;;;;;;;7.70;3.77;;;12.60;53.00;;;;;;4321125;33;20478;-71
2021/04/05 13:01:08;;;;;;;8.03;3.90;;;12.70;53.20;;;;;;4321075;33;20192;-71
2021/04/05 13:03:49;;;;;;;8.97;3.87;;;12.80;53.60;;;;;;4321642;33;20197;-71
2021/04/05 13:06:23;;;;;;;8.57;3.60;;;12.80;53.30;;;;;;4321703;33;20424;-70
2021/04/05 13:09:06;;;;;;;10.37;3.93;;;12.80;53.20;;;;;;4321141;33;20157;-70
2021/04/05 13:11:43;;;;;;;8.83;3.83;;;12.70;53.30;;;;;;4321750;33;20145;-71
2021/04/05 13:14:28;;;;;;;14.33;4.03;;;12.80;52.90;;;;;;4320183;33;20168;-70
2021/04/05 13:17:09;;;;;;;10.40;3.60;;;12.80;53.30;;;;;;4320288;33;20204;-71
2021/04/05 13:19:43;;;;;;;10.13;3.50;;;12.80;53.30;;;;;;4320840;33;20494;-71
2021/04/05 13:22:18;;;;;;;8.83;3.70;;;12.80;53.30;;;;;;4321501;33;20226;-71
2021/04/05 13:24:57;;;;;;;9.43;3.83;;;12.70;53.40;;;;;;4321411;33;20510;-71
2021/04/05 13:27:26;;;;;;;7.63;3.60;;;12.70;53.80;;;;;;4320977;33;20145;-71
2021/04/05 13:29:54;;;;;;;8.10;3.47;;;12.70;54.10;;;;;;4321236;33;20157;-71
2021/04/05 13:32:27;;;;;;;8.93;4.00;;;12.70;54.10;;;;;;4320015;33;20154;-72
2021/04/05 13:35:07;;;;;;;9.63;3.73;;;12.70;54.10;;;;;;4320948;33;20153;-70
2021/04/05 13:37:43;;;;;;;10.63;3.90;;;12.70;54.10;;;;;;4321079;33;20238;-71